M I D A S
Marine Information and Data Acquisition System
Tripno 1700 of the Zeeleeuw from 2009-05-27 07:00:46 to 2009-05-27 12:25:24
Back to CruiseResearch ActivitiesStationsMapUnderway DataData graphs

EquipmentUnitsComment
TimeDGPSUTC
LatitudeDGPSDM.mWGS84
LongitudeDGPSDM.mWGS84
TemperatureSBE03/SBE38deg celciusITS90
ConductivitySBE21S/mITS90
SalinitySBE21 Practical Salinity Units
ChlorophylAChelsea fluorimeterg/lCalibrated in Aceton
Missing or incorrect values are displayed as -999
Sea surface data collected by the RV Zeeleeuw from 2009-05-27 07:04:53 to 2009-05-27 17:11:54
Time Latitude Longitude Temperature Conductivity Salinity ChlorophylA
2009-05-27 07:06:02 51°13.678 2°55.904 -999 0.023993 0.136112 0.462042
2009-05-27 07:07:02 51°13.692 2°55.836 -999 0.023993 0.136126 0.462042
2009-05-27 07:08:01 51°13.701 2°55.772 -999 0.024096 0.136725 0.462042
2009-05-27 07:08:59 51°13.708 2°55.759 -999 0.023788 0.134982 0.462042
2009-05-27 07:09:58 51°13.702 2°55.742 -999 0.025022 0.14202 0.462042
2009-05-27 07:10:58 51°13.746 2°55.716 -999 0.024611 0.139691 0.462042
2009-05-27 07:11:58 51°13.85 2°55.621 -999 0.023891 0.135583 0.462042
2009-05-27 07:12:58 51°13.977 2°55.526 -999 0.024096 0.13678 0.462042
2009-05-27 07:13:58 51°14.109 2°55.429 -999 0.023891 0.135616 0.462042
2009-05-27 07:14:58 51°14.237 2°55.31 -999 0.024096 0.136788 0.462042
2009-05-27 07:15:58 51°14.335 2°55.124 -999 0.023685 0.134471 0.462042
2009-05-27 07:16:58 51°14.432 2°54.922 -999 0.02317 0.131579 0.462042
2009-05-27 07:17:58 51°14.567 2°54.752 -999 0.023582 0.134358 0.462042
2009-05-27 07:18:58 51°14.737 2°54.615 -999 0.023273 0.132838 0.462042
2009-05-27 07:19:58 51°14.907 2°54.466 -999 0.023479 0.134077 0.462042
2009-05-27 07:20:58 51°15.081 2°54.34 -999 0.023582 0.134859 0.427218
2009-05-27 07:21:58 51°15.253 2°54.212 -999 0.022861 0.130777 0.427218
2009-05-27 07:22:58 51°15.417 2°54.063 -999 0.023067 0.131946 0.462042
2009-05-27 07:23:58 51°15.583 2°53.912 -999 0.02317 0.132516 0.462042
2009-05-27 07:24:58 51°15.748 2°53.756 -999 0.022656 0.129596 0.462042
2009-05-27 07:25:58 51°15.911 2°53.594 -999 0.023273 0.133211 0.427218
2009-05-27 07:26:58 51°16.074 2°53.433 -999 0.022656 0.129623 0.427218
2009-05-27 07:27:58 51°16.24 2°53.27 -999 0.022759 0.130322 0.427218
2009-05-27 07:28:58 51°16.406 2°53.11 -999 0.023993 0.137447 0.427218
2009-05-27 07:29:58 51°16.576 2°52.973 -999 0.023788 0.13629 0.427218
2009-05-27 07:30:58 51°16.75 2°52.84 -999 0.023376 0.133979 0.427218
2009-05-27 07:31:58 51°16.922 2°52.712 -999 0.025023 0.143458 0.392394
2009-05-27 07:32:58 51°17.093 2°52.583 -999 0.025023 0.143495 0.427218
2009-05-27 07:33:58 51°17.266 2°52.454 -999 0.025023 0.143531 0.427218
2009-05-27 07:34:58 51°17.432 2°52.305 -999 0.024096 0.138194 0.392394
2009-05-27 07:35:58 51°17.586 2°52.13 -999 0.024302 0.139447 0.392394
2009-05-27 07:36:58 51°17.741 2°51.957 -999 0.023891 0.137109 0.392394
2009-05-27 07:37:58 51°17.897 2°51.784 -999 0.024199 0.138895 0.392394
2009-05-27 07:38:58 51°18.053 2°51.609 -999 0.023788 0.136505 0.392394
2009-05-27 07:39:58 51°18.211 2°51.433 -999 0.024508 0.140705 0.392394
2009-05-27 07:40:58 51°18.369 2°51.253 -999 0.023376 0.134164 0.392394
2009-05-27 07:41:58 51°18.526 2°51.073 -999 0.024817 0.142466 0.392394
2009-05-27 07:42:58 51°18.683 2°50.892 -999 0.023788 0.136586 0.392394
2009-05-27 07:43:58 51°18.84 2°50.708 -999 0.024302 0.139535 0.392394
2009-05-27 07:44:58 51°18.998 2°50.527 -999 0.025023 0.143751 0.35757
2009-05-27 07:45:58 51°19.154 2°50.348 -999 0.023788 0.136635 0.392394
2009-05-27 07:46:58 51°19.311 2°50.166 -999 0.027698 0.159256 0.392394
2009-05-27 07:47:58 51°19.468 2°49.981 -999 0.023993 0.137864 0.35757
2009-05-27 07:48:58 51°19.628 2°49.8 -999 0.024199 0.139047 0.35757
2009-05-27 07:49:58 51°19.786 2°49.618 -999 0.023479 0.134931 0.392394
2009-05-27 07:50:58 51°19.944 2°49.437 -999 0.023582 0.135489 0.392394
2009-05-27 07:51:58 51°20.098 2°49.257 -999 0.025125 0.144418 0.392394
2009-05-27 07:52:58 51°20.252 2°49.074 -999 0.023891 0.137318 0.392394
2009-05-27 07:53:58 51°20.408 2°48.888 -999 0.024611 0.141497 0.392394
2009-05-27 07:54:58 51°20.564 2°48.698 -999 0.024302 0.139703 0.392394
2009-05-27 07:55:58 51°20.719 2°48.507 -999 0.024302 0.139698 0.35757
2009-05-27 07:56:58 51°20.874 2°48.326 -999 0.024302 0.139716 0.35757
2009-05-27 07:57:58 51°21.03 2°48.142 -999 0.023993 0.137976 0.35757
2009-05-27 07:58:58 51°21.187 2°47.957 -999 0.023993 0.138006 0.392394
2009-05-27 07:59:58 51°21.342 2°47.759 -999 0.023582 0.135618 0.392394
2009-05-27 08:00:58 51°21.489 2°47.541 -999 0.023993 0.138016 0.35757
2009-05-27 08:01:58 51°21.64 2°47.337 -999 0.024611 0.14162 0.35757
2009-05-27 08:02:58 51°21.812 2°47.19 -999 0.026155 0.150539 0.35757
2009-05-27 08:03:58 51°21.984 2°47.045 -999 0.027698 0.159543 0.35757
2009-05-27 08:04:58 51°22.158 2°46.909 -999 0.025125 0.144604 0.35757
2009-05-27 08:05:58 51°22.332 2°46.774 -999 0.027904 0.160769 0.35757
2009-05-27 08:06:58 51°22.502 2°46.634 -999 0.026052 0.149973 0.35757
2009-05-27 08:07:58 51°22.662 2°46.463 -999 0.024714 0.142255 0.35757
2009-05-27 08:08:58 51°22.822 2°46.292 -999 0.02636 0.151793 0.35757
2009-05-27 08:09:58 51°22.98 2°46.123 -999 0.024199 0.139338 0.35757
2009-05-27 08:10:58 51°23.14 2°45.951 -999 0.026875 0.154854 0.35757
2009-05-27 08:11:58 51°23.299 2°45.788 -999 0.027595 0.159035 0.35757
2009-05-27 08:12:58 51°23.458 2°45.621 -999 0.024199 0.139346 0.35757
2009-05-27 08:13:58 51°23.616 2°45.45 -999 0.034593 0.199995 0.35757
2009-05-27 08:14:58 51°23.774 2°45.277 -999 0.028624 0.16504 0.35757
2009-05-27 08:15:58 51°23.932 2°45.108 -999 0.026669 0.15369 0.35757
2009-05-27 08:16:58 51°24.091 2°44.952 -999 0.027492 0.158521 0.322746
2009-05-27 08:17:58 51°24.241 2°45.046 -999 0.030271 0.174709 0.35757
2009-05-27 08:18:58 51°24.337 2°45.279 -999 0.040459 0.234744 0.35757
2009-05-27 08:19:58 51°24.429 2°45.522 -999 0.0384 0.222595 0.35757
2009-05-27 08:20:58 51°24.53 2°45.749 -999 0.040253 0.233594 0.322746
2009-05-27 08:21:58 51°24.635 2°45.967 -999 0.035725 0.206781 0.35757
2009-05-27 08:22:58 51°24.734 2°46.192 -999 0.029345 0.169365 0.35757
2009-05-27 08:23:58 51°24.836 2°46.415 -999 0.029859 0.172393 0.35757
2009-05-27 08:24:58 51°24.937 2°46.644 -999 0.033461 0.193525 0.322746
2009-05-27 08:25:58 51°25.036 2°46.873 -999 0.041488 0.241001 0.35757
2009-05-27 08:26:58 51°25.133 2°47.106 -999 0.034696 0.200796 0.35757
2009-05-27 08:27:58 51°25.228 2°47.34 -999 0.035107 0.203233 0.35757
2009-05-27 08:28:58 51°25.319 2°47.579 -999 0.034593 0.200228 0.322746
2009-05-27 08:29:58 51°25.409 2°47.819 -999 0.032123 0.185745 0.322746
2009-05-27 08:30:58 51°25.502 2°48.053 -999 0.041899 0.243542 0.35757
2009-05-27 08:31:58 51°25.591 2°48.289 -999 0.03521 0.203909 0.322746
2009-05-27 08:32:58 51°25.68 2°48.524 -999 0.040767 0.236843 0.35757
2009-05-27 08:33:58 51°25.767 2°48.758 -999 0.031814 0.18396 0.35757
2009-05-27 08:34:58 51°25.858 2°48.991 -999 0.038709 0.224628 0.35757
2009-05-27 08:35:58 51°25.946 2°49.226 -999 0.02883 0.166473 0.35757
2009-05-27 08:36:58 51°26.037 2°49.463 -999 0.041488 0.241194 0.35757
2009-05-27 08:37:58 51°26.127 2°49.699 -999 0.029756 0.171932 0.322746
2009-05-27 08:38:58 51°26.217 2°49.934 -999 0.038503 0.223476 0.35757
2009-05-27 08:39:58 51°26.31 2°50.171 -999 0.030888 0.17859 0.322746
2009-05-27 08:40:58 51°26.399 2°50.404 -999 0.040047 0.232683 0.35757
2009-05-27 08:41:58 51°26.493 2°50.633 -999 0.030271 0.175008 0.322746
2009-05-27 08:42:58 51°26.583 2°50.865 -999 0.02955 0.170802 0.322746
2009-05-27 08:43:58 51°26.673 2°51.105 -999 0.033873 0.196179 0.322746
2009-05-27 08:44:58 51°26.757 2°51.35 -999 0.030477 0.176207 0.322746
2009-05-27 08:45:58 51°26.842 2°51.589 -999 0.03377 0.19558 0.322746
2009-05-27 08:46:58 51°26.928 2°51.831 -999 0.030785 0.178066 0.322746
2009-05-27 08:47:58 51°27.011 2°52.074 -999 0.041591 0.241932 0.322746
2009-05-27 08:48:58 51°27.092 2°52.317 -999 0.031814 0.184098 0.322746
2009-05-27 08:49:58 51°27.17 2°52.56 -999 0.033873 0.196252 0.322746
2009-05-27 08:50:58 51°27.249 2°52.806 -999 0.032226 0.186572 0.322746
2009-05-27 08:51:58 51°27.327 2°53.049 -999 0.033255 0.192623 0.322746
2009-05-27 08:52:58 51°27.406 2°53.293 -999 0.033358 0.193229 0.287922
2009-05-27 08:53:58 51°27.483 2°53.537 -999 0.040459 0.235277 0.322746
2009-05-27 08:54:58 51°27.562 2°53.775 -999 0.030374 0.175696 0.322746
2009-05-27 08:55:58 51°27.643 2°54.016 -999 0.037371 0.216953 0.322746
2009-05-27 08:56:58 51°27.72 2°54.256 -999 0.030785 0.178126 0.322746
2009-05-27 08:57:58 51°27.798 2°54.497 -999 0.041796 0.243292 0.322746
2009-05-27 08:58:58 51°27.874 2°54.738 -999 0.036754 0.213361 0.322746
2009-05-27 08:59:58 51°27.953 2°54.976 -999 0.030682 0.177536 0.322746
2009-05-27 09:00:58 51°28.029 2°55.216 -999 0.030888 0.178773 0.322746
2009-05-27 09:01:58 51°28.11 2°55.448 -999 0.039944 0.232307 0.322746
2009-05-27 09:02:58 51°28.189 2°55.684 -999 0.03768 0.218865 0.322746
2009-05-27 09:03:58 51°28.271 2°55.92 -999 0.043237 0.251933 0.322746
2009-05-27 09:04:58 51°28.351 2°56.151 -999 0.033049 0.191501 0.322746
2009-05-27 09:05:58 51°28.433 2°56.385 -999 0.031403 0.181834 0.287922
2009-05-27 09:06:58 51°28.513 2°56.624 -999 0.043546 0.253835 0.322746
2009-05-27 09:07:58 51°28.591 2°56.861 -999 0.032123 0.186096 0.287922
2009-05-27 09:08:58 51°28.675 2°57.1 -999 0.03058 0.177005 0.322746
2009-05-27 09:09:58 51°28.757 2°57.34 -999 0.03058 0.177015 0.322746
2009-05-27 09:10:58 51°28.84 2°57.582 -999 0.030888 0.17884 0.322746
2009-05-27 09:11:58 51°28.926 2°57.823 -999 0.033873 0.196374 0.322746
2009-05-27 09:12:59 51°29.009 2°58.07 -999 0.041076 0.23913 0.322746
2009-05-27 09:13:58 51°29.092 2°58.302 -999 0.039944 0.232369 0.322746
2009-05-27 09:14:58 51°29.175 2°58.545 -999 0.032432 0.187927 0.322746
2009-05-27 09:15:58 51°29.259 2°58.782 -999 0.03521 0.204337 0.322746
2009-05-27 09:16:58 51°29.343 2°59.023 -999 0.033873 0.196419 0.322746
2009-05-27 09:17:58 51°29.423 2°59.266 -999 0.037063 0.215288 0.322746
2009-05-27 09:18:58 51°29.503 2°59.507 -999 0.032843 0.190361 0.322746
2009-05-27 09:19:58 51°29.584 2°59.747 -999 0.036445 0.21163 0.322746
2009-05-27 09:20:58 51°29.68 2°59.97 -999 0.029345 0.169834 0.322746
2009-05-27 09:21:58 51°29.778 3°0.19 -999 0.045192 0.263747 0.322746
2009-05-27 09:22:58 51°29.872 3°0.413 -999 0.033358 0.1934 0.287922
2009-05-27 09:23:58 51°29.97 3°0.63 -999 0.03696 0.214719 0.322746
2009-05-27 09:24:58 51°30.068 3°0.849 -999 0.033152 0.192223 0.287922
2009-05-27 09:25:58 51°30.164 3°1.072 -999 0.032638 0.189177 0.287922
2009-05-27 09:26:58 51°30.256 3°1.299 -999 0.033873 0.196463 0.322746
2009-05-27 09:27:58 51°30.347 3°1.532 -999 0.03696 0.214731 0.322746
2009-05-27 09:28:58 51°30.438 3°1.766 -999 0.031609 0.183116 0.287922
2009-05-27 09:29:58 51°30.531 3°2 -999 0.028933 0.167427 0.287922
2009-05-27 09:30:58 51°30.626 3°2.231 -999 0.032123 0.186173 0.287922
2009-05-27 09:31:58 51°30.72 3°2.468 -999 0.035313 0.204945 0.287922
2009-05-27 09:32:58 51°30.816 3°2.701 -999 0.031609 0.183146 0.287922
2009-05-27 09:33:58 51°30.915 3°2.925 -999 0.029962 0.173494 0.287922
2009-05-27 09:34:58 51°31.006 3°3.159 -999 0.031094 0.180126 0.287922
2009-05-27 09:35:58 51°31.101 3°3.394 -999 0.0313 0.181345 0.322746
2009-05-27 09:36:58 51°31.192 3°3.633 -999 0.0313 0.181362 0.287922
2009-05-27 09:37:58 51°31.287 3°3.872 -999 0.04087 0.238008 0.287922
2009-05-27 09:38:58 51°31.38 3°4.107 -999 0.040459 0.23557 0.287922
2009-05-27 09:39:58 51°31.474 3°4.331 -999 0.035313 0.205007 0.287922
2009-05-27 09:40:59 51°31.568 3°4.564 -999 0.033873 0.196508 0.287922
2009-05-27 09:41:58 51°31.661 3°4.792 -999 0.030682 0.177715 0.287922
2009-05-27 09:42:58 51°31.753 3°5.03 -999 0.033152 0.192259 0.287922
2009-05-27 09:43:58 51°31.844 3°5.267 -999 0.033255 0.192898 0.253098
2009-05-27 09:44:58 51°31.959 3°5.466 -999 0.031814 0.184384 0.287922
2009-05-27 09:45:58 51°32.12 3°5.443 -999 0.029859 0.172894 0.287922
2009-05-27 09:46:58 51°32.251 3°5.234 -999 0.027595 0.159639 0.287922
2009-05-27 09:47:58 51°32.368 3°4.992 -999 0.026669 0.154264 0.287922
2009-05-27 09:48:58 51°32.485 3°4.748 -999 0.026669 0.154255 0.287922
2009-05-27 09:49:58 51°32.605 3°4.503 -999 0.026772 0.154818 0.287922
2009-05-27 09:50:58 51°32.727 3°4.255 -999 0.025846 0.14944 0.287922
2009-05-27 09:51:58 51°32.845 3°4.017 -999 0.026052 0.150641 0.287922
2009-05-27 09:52:58 51°32.961 3°3.776 -999 0.026669 0.154235 0.287922
2009-05-27 09:53:58 51°33.076 3°3.541 -999 0.02955 0.171104 0.253098
2009-05-27 09:54:58 51°33.154 3°3.279 -999 0.027698 0.160267 0.287922
2009-05-27 09:55:58 51°33.119 3°2.987 -999 0.032946 0.191089 0.287922
2009-05-27 09:56:58 51°33.006 3°2.716 -999 0.029242 0.169307 0.287922
2009-05-27 09:57:58 51°32.884 3°2.466 -999 0.028007 0.162116 0.287922
2009-05-27 09:58:58 51°32.761 3°2.198 -999 0.030374 0.175995 0.287922
2009-05-27 09:59:58 51°32.658 3°1.914 -999 0.030785 0.178419 0.253098
2009-05-27 10:00:58 51°32.562 3°1.619 -999 0.029756 0.172368 0.287922
2009-05-27 10:01:58 51°32.465 3°1.33 -999 0.029139 0.16877 0.253098
2009-05-27 10:02:58 51°32.367 3°1.041 -999 0.029653 0.171774 0.287922
2009-05-27 10:03:58 51°32.268 3°0.75 -999 0.028418 0.164555 0.287922
2009-05-27 10:04:58 51°32.168 3°0.459 -999 0.029242 0.169367 0.287922
2009-05-27 10:05:58 51°32.069 3°0.167 -999 0.029962 0.173591 0.287922
2009-05-27 10:06:58 51°31.975 2°59.871 -999 0.028316 0.163913 0.287922
2009-05-27 10:07:58 51°31.888 2°59.573 -999 0.028418 0.164548 0.253098
2009-05-27 10:08:58 51°31.803 2°59.278 -999 0.027595 0.159758 0.287922
2009-05-27 10:09:58 51°31.713 2°58.975 -999 0.027081 0.156737 0.253098
2009-05-27 10:10:58 51°31.622 2°58.68 -999 0.027389 0.158531 0.253098
2009-05-27 10:11:58 51°31.531 2°58.373 -999 0.026669 0.154326 0.287922
2009-05-27 10:12:58 51°31.44 2°58.079 -999 0.029036 0.168195 0.253098
2009-05-27 10:13:58 51°31.333 2°57.798 -999 0.031609 0.183291 0.253098
2009-05-27 10:14:58 51°31.221 2°57.51 -999 0.029139 0.168783 0.253098
2009-05-27 10:15:58 51°31.117 2°57.227 -999 0.029036 0.168211 0.287922
2009-05-27 10:16:58 51°31.016 2°56.931 -999 0.028316 0.163989 0.287922
2009-05-27 10:17:58 51°30.916 2°56.633 -999 0.027389 0.158572 0.287922
2009-05-27 10:18:58 51°30.816 2°56.336 -999 0.030271 0.175459 0.253098
2009-05-27 10:19:58 51°30.72 2°56.044 -999 0.028727 0.166418 0.253098
2009-05-27 10:20:58 51°30.625 2°55.752 -999 0.027595 0.159775 0.287922
2009-05-27 10:21:58 51°30.531 2°55.461 -999 0.027184 0.157399 0.287922
2009-05-27 10:22:58 51°30.44 2°55.178 -999 0.029345 0.170043 0.253098
2009-05-27 10:23:58 51°30.345 2°54.887 -999 0.028007 0.162191 0.253098
2009-05-27 10:24:58 51°30.25 2°54.611 -999 0.02811 0.162827 0.253098
2009-05-27 10:25:58 51°30.156 2°54.333 -999 0.027595 0.159814 0.253098
2009-05-27 10:26:58 51°30.058 2°54.045 -999 0.02955 0.171279 0.253098
2009-05-27 10:27:58 51°29.958 2°53.757 -999 0.029036 0.168249 0.253098
2009-05-27 10:28:59 51°29.859 2°53.47 -999 0.02883 0.167039 0.253098
2009-05-27 10:29:58 51°29.764 2°53.185 -999 0.027287 0.158012 0.287922
2009-05-27 10:30:58 51°29.669 2°52.898 -999 0.027801 0.161035 0.253098
2009-05-27 10:31:58 51°29.573 2°52.61 -999 0.027904 0.161637 0.253098
2009-05-27 10:32:58 51°29.479 2°52.327 -999 0.029962 0.173718 0.253098
2009-05-27 10:33:58 51°29.384 2°52.035 -999 0.029962 0.173702 0.253098
2009-05-27 10:34:58 51°29.287 2°51.75 -999 0.028213 0.163438 0.253098
2009-05-27 10:35:59 51°29.19 2°51.462 -999 0.028418 0.164674 0.253098
2009-05-27 10:36:59 51°29.094 2°51.178 -999 0.027595 0.159834 0.253098
2009-05-27 10:37:58 51°29.002 2°50.897 -999 0.028521 0.165273 0.253098
2009-05-27 10:38:58 51°28.903 2°50.611 -999 0.029756 0.172509 0.287922
2009-05-27 10:39:59 51°28.802 2°50.312 -999 0.028213 0.16345 0.253098
2009-05-27 10:40:58 51°28.707 2°50.026 -999 0.027184 0.157443 0.253098
2009-05-27 10:41:58 51°28.613 2°49.73 -999 0.026566 0.153853 0.253098
2009-05-27 10:42:58 51°28.52 2°49.444 -999 0.027287 0.158053 0.253098
2009-05-27 10:43:58 51°28.424 2°49.154 -999 0.026566 0.153862 0.253098
2009-05-27 10:44:59 51°28.326 2°48.86 -999 0.030065 0.174335 0.253098
2009-05-27 10:45:59 51°28.235 2°48.582 -999 0.027801 0.161083 0.253098
2009-05-27 10:46:58 51°28.144 2°48.305 -999 0.02883 0.16712 0.253098
2009-05-27 10:47:58 51°28.047 2°48.007 -999 0.027801 0.16108 0.253098
2009-05-27 10:48:58 51°27.95 2°47.716 -999 0.026875 0.155656 0.253098
2009-05-27 10:49:58 51°27.851 2°47.428 -999 0.030065 0.174381 0.253098
2009-05-27 10:50:58 51°27.753 2°47.135 -999 0.027904 0.161685 0.253098
2009-05-27 10:51:58 51°27.657 2°46.844 -999 0.030065 0.174368 0.253098
2009-05-27 10:52:59 51°27.562 2°46.556 -999 0.027389 0.158672 0.253098
2009-05-27 10:53:58 51°27.47 2°46.278 -999 0.02955 0.171352 0.253098
2009-05-27 10:54:58 51°27.376 2°45.989 -999 0.028521 0.16532 0.253098
2009-05-27 10:55:58 51°27.283 2°45.702 -999 0.02883 0.167139 0.253098
2009-05-27 10:56:58 51°27.187 2°45.403 -999 0.033049 0.191974 0.253098
2009-05-27 10:57:58 51°27.092 2°45.107 -999 0.028316 0.164129 0.253098
2009-05-27 10:58:58 51°26.996 2°44.813 -999 0.028727 0.166554 0.253098
2009-05-27 10:59:58 51°26.92 2°44.585 -999 0.031197 0.181022 0.253098
2009-05-27 11:00:58 51°26.839 2°44.334 -999 0.027492 0.159321 0.253098
2009-05-27 11:01:58 51°26.771 2°44.129 -999 0.028007 0.162315 0.253098
2009-05-27 11:03:00 51°26.694 2°43.888 -999 0.028007 0.162318 0.253098
2009-05-27 11:03:58 51°26.604 2°43.616 -999 0.028727 0.166554 0.253098
2009-05-27 11:04:58 51°26.51 2°43.335 -999 0.02811 0.162926 0.253098
2009-05-27 11:05:58 51°26.415 2°43.042 -999 0.029345 0.170186 0.253098
2009-05-27 11:06:58 51°26.321 2°42.752 -999 0.02883 0.167176 0.253098
2009-05-27 11:07:58 51°26.226 2°42.468 -999 0.027081 0.156922 0.253098
2009-05-27 11:08:58 51°26.125 2°42.191 -999 0.028316 0.164172 0.253098
2009-05-27 11:09:58 51°25.977 2°41.983 -999 0.030477 0.176834 0.253098
2009-05-27 11:10:58 51°25.793 2°41.884 -999 0.039224 0.228662 0.253098
2009-05-27 11:11:59 51°25.598 2°41.87 -999 0.038195 0.222548 0.253098
2009-05-27 11:12:58 51°25.404 2°41.889 -999 0.043855 0.256345 0.253098
2009-05-27 11:13:58 51°25.21 2°41.951 -999 0.036548 0.212724 0.253098
2009-05-27 11:14:58 51°25.039 2°42.101 -999 0.045192 0.264379 0.253098
2009-05-27 11:15:58 51°24.877 2°42.267 -999 0.037577 0.218879 0.218274
2009-05-27 11:16:58 51°24.701 2°42.413 -999 0.033873 0.196898 0.218274
2009-05-27 11:17:58 51°24.523 2°42.556 -999 0.045604 0.266835 0.253098
2009-05-27 11:18:59 51°24.351 2°42.713 -999 0.04015 0.234184 0.218274
2009-05-27 11:19:58 51°24.181 2°42.857 -999 0.039944 0.232965 0.218274
2009-05-27 11:20:58 51°24.01 2°43.005 -999 0.032638 0.189609 0.218274
2009-05-27 11:21:58 51°23.842 2°43.151 -999 0.042105 0.245886 0.218274
2009-05-27 11:22:59 51°23.67 2°43.303 -999 0.044163 0.258215 0.218274
2009-05-27 11:23:58 51°23.504 2°43.445 -999 0.043134 0.252103 0.218274
2009-05-27 11:24:58 51°23.334 2°43.582 -999 0.038195 0.222599 0.218274
2009-05-27 11:25:58 51°23.165 2°43.721 -999 0.037063 0.215841 0.218274
2009-05-27 11:26:58 51°22.995 2°43.863 -999 0.03696 0.21523 0.218274
2009-05-27 11:27:59 51°22.823 2°44.007 -999 0.040047 0.233619 0.218274
2009-05-27 11:28:58 51°22.656 2°44.148 -999 0.038195 0.222586 0.218274
2009-05-27 11:29:58 51°22.485 2°44.297 -999 0.037783 0.220145 0.218274
2009-05-27 11:30:58 51°22.314 2°44.453 -999 0.046736 0.273689 0.218274
2009-05-27 11:31:58 51°22.144 2°44.607 -999 0.048177 0.282409 0.218274
2009-05-27 11:32:58 51°21.973 2°44.761 -999 0.038606 0.225075 0.218274
2009-05-27 11:33:58 51°21.802 2°44.925 -999 0.046427 0.27187 0.253098
2009-05-27 11:34:59 51°21.628 2°45.086 -999 0.044472 0.260162 0.218274
2009-05-27 11:35:58 51°21.459 2°45.243 -999 0.043443 0.254001 0.218274
2009-05-27 11:36:58 51°21.288 2°45.401 -999 0.04087 0.238612 0.218274
2009-05-27 11:37:58 51°21.117 2°45.56 -999 0.035519 0.20673 0.218274
2009-05-27 11:38:58 51°20.949 2°45.719 -999 0.043546 0.254618 0.218274
2009-05-27 11:39:59 51°20.781 2°45.878 -999 0.040356 0.235561 0.218274
2009-05-27 11:40:58 51°20.617 2°46.031 -999 0.047457 0.278109 0.253098
2009-05-27 11:41:58 51°20.453 2°46.187 -999 0.047559 0.278756 0.218274
2009-05-27 11:42:58 51°20.289 2°46.344 -999 0.04509 0.263924 0.218274
2009-05-27 11:43:59 51°20.12 2°46.5 -999 0.041076 0.239887 0.218274
2009-05-27 11:44:58 51°19.954 2°46.653 -999 0.039224 0.22882 0.218274
2009-05-27 11:45:58 51°19.786 2°46.805 -999 0.040356 0.235575 0.218274
2009-05-27 11:46:58 51°19.616 2°46.96 -999 0.047868 0.280642 0.253098
2009-05-27 11:47:58 51°19.447 2°47.112 -999 0.036651 0.213543 0.218274
2009-05-27 11:48:58 51°19.278 2°47.265 -999 0.038709 0.225766 0.218274
2009-05-27 11:49:58 51°19.11 2°47.419 -999 0.040459 0.236225 0.218274
2009-05-27 11:50:58 51°18.94 2°47.575 -999 0.041385 0.241784 0.218274
2009-05-27 11:51:58 51°18.772 2°47.736 -999 0.036034 0.209887 0.218274
2009-05-27 11:52:59 51°18.601 2°47.902 -999 0.035622 0.207447 0.218274
2009-05-27 11:53:58 51°18.436 2°48.063 -999 0.046942 0.275167 0.218274
2009-05-27 11:54:58 51°18.27 2°48.229 -999 0.035005 0.203803 0.218274
2009-05-27 11:55:58 51°18.102 2°48.393 -999 0.032432 0.188561 0.218274
2009-05-27 11:56:58 51°17.936 2°48.559 -999 0.042414 0.247957 0.18345
2009-05-27 11:57:59 51°17.766 2°48.724 -999 0.032535 0.189187 0.18345
2009-05-27 11:58:58 51°17.599 2°48.886 -999 0.035005 0.203822 0.218274
2009-05-27 11:59:58 51°17.429 2°49.05 -999 0.047251 0.277031 0.218274
2009-05-27 12:00:58 51°17.258 2°49.212 -999 0.040665 0.237537 0.18345
2009-05-27 12:01:59 51°17.086 2°49.382 -999 0.044369 0.259735 0.218274
2009-05-27 12:02:58 51°16.919 2°49.549 -999 0.033564 0.195301 0.18345
2009-05-27 12:03:58 51°16.749 2°49.722 -999 0.04015 0.234463 0.218274
2009-05-27 12:04:58 51°16.581 2°49.898 -999 0.047559 0.278929 0.218274
2009-05-27 12:05:58 51°16.414 2°50.075 -999 0.048794 0.286386 0.218274
2009-05-27 12:06:59 51°16.243 2°50.25 -999 0.038298 0.223446 0.218274
2009-05-27 12:07:58 51°16.084 2°50.419 -999 0.037474 0.218547 0.218274
2009-05-27 12:08:58 51°15.932 2°50.621 -999 0.034181 0.198973 0.218274
2009-05-27 12:09:58 51°15.816 2°50.882 -999 0.045707 0.26781 0.218274
2009-05-27 12:10:58 51°15.733 2°51.173 -999 0.030785 0.178938 0.18345
2009-05-27 12:11:58 51°15.684 2°51.488 -999 0.036754 0.214289 0.218274
2009-05-27 12:12:58 51°15.638 2°51.799 -999 0.035828 0.208804 0.18345
2009-05-27 12:13:59 51°15.567 2°52.104 -999 0.046016 0.269703 0.218274
2009-05-27 12:14:58 51°15.482 2°52.385 -999 0.040562 0.236968 0.218274
2009-05-27 12:15:59 51°15.39 2°52.668 -999 0.04581 0.268502 0.18345
2009-05-27 12:16:58 51°15.287 2°52.927 -999 0.033667 0.195988 0.18345
2009-05-27 12:17:58 51°15.182 2°53.192 -999 0.03696 0.215538 0.18345
2009-05-27 12:18:58 51°15.085 2°53.466 -999 0.034696 0.202138 0.18345
2009-05-27 12:19:59 51°14.997 2°53.748 -999 0.04653 0.272859 0.218274
2009-05-27 12:20:58 51°14.892 2°54.001 -999 0.040665 0.237665 0.218274
2009-05-27 12:21:58 51°14.777 2°54.252 -999 0.04087 0.238873 0.218274
2009-05-27 12:22:59 51°14.653 2°54.5 -999 0.041282 0.24135 0.218274
2009-05-27 12:23:58 51°14.536 2°54.739 -999 0.038709 0.225956 0.218274
2009-05-27 12:24:59 51°14.411 2°54.986 -999 0.035005 0.203912 0.18345
2009-05-27 12:25:58 51°14.285 2°55.214 -999 0.038915 0.227193 0.18345
2009-05-27 12:26:58 51°14.171 2°55.389 -999 0.032741 0.190489 0.18345
2009-05-27 12:27:58 51°14.053 2°55.482 -999 0.031609 0.183832 0.18345
2009-05-27 12:28:59 51°13.944 2°55.555 -999 0.031197 0.1814 0.218274
2009-05-27 12:29:58 51°13.843 2°55.62 -999 0.0313 0.182 0.18345
2009-05-27 12:30:58 51°13.75 2°55.705 -999 0.032329 0.188095 0.18345
2009-05-27 12:31:59 51°13.697 2°55.829 -999 0.028727 0.166827 0.218274
2009-05-27 12:32:58 51°13.666 2°55.926 -999 0.029756 0.172887 0.218274
2009-05-27 12:33:59 51°13.661 2°55.956 -999 0.030168 0.1753 0.218274
2009-05-27 12:34:59 51°13.662 2°55.96 -999 0.03058 0.177722 0.218274
2009-05-27 12:35:58 51°13.663 2°55.959 -999 0.029036 0.168613 0.218274
2009-05-27 12:36:58 51°13.662 2°55.96 -999 0.029448 0.171 0.218274
2009-05-27 12:37:58 51°13.662 2°55.96 -999 0.029653 0.172246 0.218274
2009-05-27 12:38:59 51°13.662 2°55.959 -999 0.029756 0.172858 0.218274
2009-05-27 12:39:59 51°13.662 2°55.959 -999 0.02955 0.171634 0.218274
2009-05-27 12:41:02 51°13.662 2°55.96 -999 0.029653 0.172233 0.218274
2009-05-27 12:42:03 51°13.662 2°55.959 -999 0.029653 0.17223 0.218274
2009-05-27 12:43:03 51°13.663 2°55.959 -999 0.029653 0.172227 0.218274
2009-05-27 12:44:03 51°13.663 2°55.959 -999 0.029653 0.17222 0.218274
2009-05-27 12:45:03 51°13.663 2°55.959 -999 0.02955 0.171605 0.218274
2009-05-27 12:46:03 51°13.663 2°55.959 -999 0.029653 0.172207 0.218274
2009-05-27 12:47:03 51°13.664 2°55.959 -999 0.029653 0.172204 0.218274
2009-05-27 12:48:03 51°13.664 2°55.96 -999 0.029653 0.172198 0.218274
2009-05-27 12:49:03 51°13.663 2°55.961 -999 0.029859 0.173412 0.218274
2009-05-27 12:50:03 51°13.663 2°55.961 -999 0.02955 0.17158 0.218274
2009-05-27 12:51:03 51°13.663 2°55.96 -999 0.029448 0.170975 0.253098
2009-05-27 12:52:03 51°13.664 2°55.961 -999 0.029242 0.169753 0.218274
2009-05-27 12:53:03 51°13.664 2°55.96 -999 0.02955 0.17157 0.218274
2009-05-27 12:54:03 51°13.663 2°55.96 -999 0.029345 0.170354 0.253098
2009-05-27 12:55:03 51°13.662 2°55.96 -999 0.02955 0.171564 0.218274
2009-05-27 12:56:03 51°13.662 2°55.961 -999 0.02955 0.171557 0.253098
2009-05-27 12:57:03 51°13.662 2°55.961 -999 0.029653 0.172159 0.253098
2009-05-27 12:58:03 51°13.663 2°55.961 -999 0.029448 0.170949 0.253098
2009-05-27 12:59:03 51°13.663 2°55.96 -999 0.029242 0.169727 0.253098
2009-05-27 13:00:03 51°13.663 2°55.96 -999 0.029345 0.170332 0.253098
2009-05-27 13:01:03 51°13.663 2°55.96 -999 0.029653 0.172149 0.253098
2009-05-27 13:02:03 51°13.663 2°55.959 -999 0.029448 0.170933 0.253098
2009-05-27 13:03:03 51°13.663 2°55.959 -999 0.029345 0.170322 0.218274
2009-05-27 13:04:03 51°13.663 2°55.959 -999 0.02955 0.171532 0.253098
2009-05-27 13:05:03 51°13.663 2°55.959 -999 0.029345 0.170319 0.253098
2009-05-27 13:06:03 51°13.663 2°55.959 -999 0.029448 0.170921 0.253098
2009-05-27 13:07:03 51°13.663 2°55.958 -999 0.029242 0.169702 0.218274
2009-05-27 13:08:03 51°13.663 2°55.958 -999 0.029345 0.170313 0.253098
2009-05-27 13:09:03 51°13.663 2°55.958 -999 0.029242 0.169699 0.253098
2009-05-27 13:10:03 51°13.664 2°55.959 -999 0.029448 0.170914 0.253098
2009-05-27 13:11:03 51°13.664 2°55.958 -999 0.029345 0.1703 0.253098
2009-05-27 13:12:03 51°13.664 2°55.959 -999 0.029448 0.170901 0.253098
2009-05-27 13:13:03 51°13.664 2°55.959 -999 0.029345 0.170297 0.218274
2009-05-27 13:14:03 51°13.664 2°55.959 -999 0.029242 0.169689 0.253098
2009-05-27 13:15:03 51°13.664 2°55.959 -999 0.029242 0.169683 0.253098
2009-05-27 13:16:03 51°13.663 2°55.959 -999 0.029345 0.170287 0.218274
2009-05-27 13:17:03 51°13.663 2°55.96 -999 0.029139 0.169072 0.218274
2009-05-27 13:18:03 51°13.662 2°55.96 -999 0.029242 0.169673 0.253098
2009-05-27 13:19:03 51°13.664 2°55.96 -999 0.029139 0.169069 0.253098
2009-05-27 13:20:03 51°13.664 2°55.961 -999 0.029242 0.16967 0.253098
2009-05-27 13:21:03 51°13.662 2°55.961 -999 0.029036 0.168459 0.253098
2009-05-27 13:22:03 51°13.662 2°55.961 -999 0.029242 0.169667 0.253098
2009-05-27 13:23:03 51°13.662 2°55.961 -999 0.029139 0.169056 0.253098
2009-05-27 13:24:03 51°13.661 2°55.961 -999 0.029345 0.170265 0.253098
2009-05-27 13:25:03 51°13.66 2°55.961 -999 0.029139 0.16905 0.253098
2009-05-27 13:26:03 51°13.661 2°55.96 -999 0.029242 0.169651 0.253098
2009-05-27 13:27:03 51°13.661 2°55.96 -999 0.029139 0.169041 0.253098
2009-05-27 13:28:03 51°13.661 2°55.96 -999 0.029345 0.170252 0.218274
2009-05-27 13:29:03 51°13.662 2°55.96 -999 0.029139 0.169038 0.218274
2009-05-27 13:30:03 51°13.662 2°55.96 -999 0.029139 0.169034 0.218274
2009-05-27 13:31:03 51°13.663 2°55.96 -999 0.029139 0.169028 0.253098
2009-05-27 13:32:03 51°13.662 2°55.96 -999 0.029242 0.169639 0.253098
2009-05-27 13:33:03 51°13.662 2°55.959 -999 0.029345 0.17024 0.253098
2009-05-27 13:34:03 51°13.663 2°55.96 -999 0.029139 0.169022 0.218274
2009-05-27 13:35:03 51°13.662 2°55.96 -999 0.029242 0.169632 0.253098
2009-05-27 13:36:03 51°13.663 2°55.961 -999 0.029448 0.170834 0.218274
2009-05-27 13:37:03 51°13.663 2°55.96 -999 0.029242 0.169629 0.253098
2009-05-27 13:38:03 51°13.662 2°55.96 -999 0.029139 0.169022 0.253098
2009-05-27 13:39:03 51°13.662 2°55.96 -999 0.028933 0.167798 0.253098
2009-05-27 13:40:03 51°13.661 2°55.959 -999 0.029036 0.168408 0.253098
2009-05-27 13:41:03 51°13.662 2°55.959 -999 0.029242 0.169616 0.253098
2009-05-27 13:42:03 51°13.663 2°55.959 -999 0.029242 0.169613 0.253098
2009-05-27 13:43:03 51°13.664 2°55.959 -999 0.029242 0.16961 0.253098
2009-05-27 13:44:03 51°13.664 2°55.96 -999 0.029242 0.169607 0.253098
2009-05-27 13:45:03 51°13.664 2°55.961 -999 0.029139 0.168997 0.253098
2009-05-27 13:46:03 51°13.663 2°55.961 -999 0.029242 0.169601 0.253098
2009-05-27 13:47:03 51°13.664 2°55.96 -999 0.029139 0.168993 0.253098
2009-05-27 13:48:03 51°13.664 2°55.959 -999 0.029036 0.16838 0.253098
2009-05-27 13:49:03 51°13.664 2°55.959 -999 0.029036 0.168377 0.253098
2009-05-27 13:50:03 51°13.662 2°55.959 -999 0.029036 0.168374 0.253098
2009-05-27 13:51:03 51°13.662 2°55.959 -999 0.028933 0.167767 0.253098
2009-05-27 13:52:03 51°13.662 2°55.959 -999 0.029036 0.168371 0.253098
2009-05-27 13:53:03 51°13.663 2°55.96 -999 0.029036 0.168368 0.218274
2009-05-27 13:54:03 51°13.663 2°55.96 -999 0.029036 0.168364 0.253098
2009-05-27 13:55:03 51°13.663 2°55.959 -999 0.029036 0.168358 0.253098
2009-05-27 13:56:03 51°13.663 2°55.96 -999 0.029242 0.169566 0.253098
2009-05-27 13:57:03 51°13.663 2°55.96 -999 0.029036 0.168355 0.253098
2009-05-27 13:58:03 51°13.662 2°55.96 -999 0.029036 0.168346 0.218274
2009-05-27 13:59:03 51°13.662 2°55.96 -999 0.028727 0.166526 0.253098
2009-05-27 14:00:03 51°13.663 2°55.96 -999 0.029036 0.168339 0.253098
2009-05-27 14:01:03 51°13.663 2°55.96 -999 0.029139 0.16894 0.253098
2009-05-27 14:02:03 51°13.663 2°55.96 -999 0.029139 0.168934 0.253098
2009-05-27 14:03:03 51°13.663 2°55.961 -999 0.029139 0.168927 0.253098
2009-05-27 14:04:03 51°13.663 2°55.96 -999 0.029139 0.168927 0.253098
2009-05-27 14:05:03 51°13.663 2°55.96 -999 0.028933 0.167711 0.253098
2009-05-27 14:06:03 51°13.664 2°55.961 -999 0.029139 0.168921 0.253098
2009-05-27 14:07:03 51°13.663 2°55.961 -999 0.02883 0.167098 0.253098
2009-05-27 14:08:03 51°13.663 2°55.961 -999 0.029036 0.168308 0.253098
2009-05-27 14:09:03 51°13.663 2°55.961 -999 0.028933 0.167695 0.253098
2009-05-27 14:10:03 51°13.663 2°55.961 -999 0.029139 0.168905 0.253098
2009-05-27 14:11:03 51°13.664 2°55.961 -999 0.029036 0.168295 0.253098
2009-05-27 14:12:03 51°13.664 2°55.961 -999 0.029139 0.168896 0.253098
2009-05-27 14:13:03 51°13.664 2°55.96 -999 0.029036 0.168289 0.253098
2009-05-27 14:14:03 51°13.664 2°55.96 -999 0.029036 0.168283 0.253098
2009-05-27 14:15:03 51°13.664 2°55.96 -999 0.028933 0.167673 0.253098
2009-05-27 14:16:03 51°13.664 2°55.959 -999 0.029139 0.168877 0.253098
2009-05-27 14:17:03 51°13.664 2°55.96 -999 0.028933 0.16767 0.253098
2009-05-27 14:18:03 51°13.664 2°55.961 -999 0.02883 0.167058 0.253098
2009-05-27 14:19:03 51°13.664 2°55.961 -999 0.029036 0.168264 0.253098
2009-05-27 14:20:03 51°13.664 2°55.962 -999 0.028933 0.167655 0.218274
2009-05-27 14:21:03 51°13.663 2°55.961 -999 0.029036 0.168258 0.253098
2009-05-27 14:22:03 51°13.663 2°55.96 -999 0.028933 0.167648 0.253098
2009-05-27 14:23:03 51°13.664 2°55.96 -999 0.02883 0.167036 0.253098
2009-05-27 14:24:03 51°13.664 2°55.96 -999 0.02883 0.167042 0.253098
2009-05-27 14:25:03 51°13.664 2°55.961 -999 0.02883 0.167036 0.253098
2009-05-27 14:26:03 51°13.664 2°55.961 -999 0.02883 0.16703 0.253098
2009-05-27 14:27:03 51°13.664 2°55.96 -999 0.02883 0.16703 0.253098
2009-05-27 14:28:03 51°13.663 2°55.96 -999 0.028624 0.165815 0.253098
2009-05-27 14:29:03 51°13.664 2°55.96 -999 0.028727 0.166411 0.253098
2009-05-27 14:30:03 51°13.663 2°55.961 -999 0.02883 0.167014 0.253098
2009-05-27 14:31:03 51°13.666 2°55.96 -999 0.028727 0.166408 0.253098
2009-05-27 14:32:03 51°13.662 2°55.961 -999 0.028933 0.167611 0.253098
2009-05-27 14:33:03 51°13.662 2°55.96 -999 0.02883 0.167005 0.253098
2009-05-27 14:34:03 51°13.661 2°55.96 -999 0.028933 0.167611 0.253098
2009-05-27 14:35:03 51°13.662 2°55.96 -999 0.028624 0.165787 0.253098
2009-05-27 14:36:03 51°13.662 2°55.96 -999 0.028933 0.167599 0.253098
2009-05-27 14:37:03 51°13.661 2°55.96 -999 0.02883 0.166989 0.253098
2009-05-27 14:38:03 51°13.661 2°55.96 -999 0.028727 0.166384 0.253098
2009-05-27 14:39:03 51°13.661 2°55.96 -999 0.02883 0.16698 0.253098
2009-05-27 14:40:03 51°13.661 2°55.96 -999 0.02883 0.16698 0.253098
2009-05-27 14:41:03 51°13.661 2°55.96 -999 0.028933 0.16758 0.253098
2009-05-27 14:42:03 51°13.662 2°55.96 -999 0.028933 0.167577 0.253098
2009-05-27 14:43:03 51°13.662 2°55.961 -999 0.028933 0.167574 0.253098
2009-05-27 14:44:03 51°13.663 2°55.96 -999 0.029036 0.168173 0.253098
2009-05-27 14:45:03 51°13.663 2°55.96 -999 0.028933 0.167564 0.253098
2009-05-27 14:46:03 51°13.663 2°55.96 -999 0.02883 0.166952 0.253098
2009-05-27 14:47:03 51°13.663 2°55.96 -999 0.028933 0.167558 0.253098
2009-05-27 14:48:03 51°13.662 2°55.961 -999 0.02883 0.166946 0.253098
2009-05-27 14:49:03 51°13.663 2°55.961 -999 0.028933 0.167549 0.253098
2009-05-27 14:50:03 51°13.663 2°55.96 -999 0.02883 0.166949 0.253098
2009-05-27 14:51:03 51°13.663 2°55.96 -999 0.028933 0.167539 0.253098
2009-05-27 14:52:03 51°13.662 2°55.96 -999 0.028933 0.167539 0.253098
2009-05-27 14:53:03 51°13.662 2°55.96 -999 0.02883 0.166934 0.253098
2009-05-27 14:54:04 51°13.663 2°55.96 -999 0.028933 0.167533 0.253098
2009-05-27 14:55:03 51°13.662 2°55.96 -999 0.028418 0.164503 0.253098
2009-05-27 14:56:03 51°13.663 2°55.96 -999 0.02883 0.166921 0.253098
2009-05-27 14:57:04 51°13.663 2°55.96 -999 0.02883 0.166918 0.253098
2009-05-27 14:58:03 51°13.663 2°55.96 -999 0.028933 0.167518 0.253098
2009-05-27 14:59:03 51°13.663 2°55.96 -999 0.028624 0.165692 0.253098
2009-05-27 15:00:04 51°13.663 2°55.96 -999 0.028933 0.167514 0.253098
2009-05-27 15:01:03 51°13.663 2°55.96 -999 0.02883 0.166906 0.253098
2009-05-27 15:02:04 51°13.663 2°55.96 -999 0.02883 0.1669 0.253098
2009-05-27 15:03:03 51°13.663 2°55.959 -999 0.028624 0.165692 0.253098
2009-05-27 15:04:03 51°13.663 2°55.96 -999 0.02883 0.166896 0.253098
2009-05-27 15:05:04 51°13.663 2°55.96 -999 0.028933 0.167499 0.253098
2009-05-27 15:06:03 51°13.663 2°55.96 -999 0.028727 0.166285 0.253098
2009-05-27 15:07:04 51°13.662 2°55.96 -999 0.028624 0.165673 0.253098
2009-05-27 15:08:03 51°13.662 2°55.96 -999 0.028727 0.166285 0.253098
2009-05-27 15:09:03 51°13.661 2°55.96 -999 0.028624 0.16567 0.253098
2009-05-27 15:10:04 51°13.661 2°55.96 -999 0.028727 0.166272 0.253098
2009-05-27 15:11:03 51°13.662 2°55.96 -999 0.02883 0.166875 0.253098
2009-05-27 15:12:03 51°13.662 2°55.96 -999 0.028727 0.166263 0.253098
2009-05-27 15:13:04 51°13.662 2°55.96 -999 0.028727 0.166263 0.253098
2009-05-27 15:14:03 51°13.662 2°55.96 -999 0.02883 0.166865 0.253098
2009-05-27 15:15:04 51°13.662 2°55.96 -999 0.029139 0.168673 0.253098
2009-05-27 15:16:04 51°13.662 2°55.96 -999 0.02883 0.166856 0.253098
2009-05-27 15:17:03 51°13.662 2°55.96 -999 0.028727 0.166251 0.253098
2009-05-27 15:18:04 51°13.663 2°55.96 -999 0.028624 0.165643 0.253098
2009-05-27 15:19:03 51°13.662 2°55.96 -999 0.028727 0.166248 0.253098
2009-05-27 15:20:03 51°13.662 2°55.96 -999 0.028624 0.165633 0.253098
2009-05-27 15:21:04 51°13.662 2°55.96 -999 0.028624 0.165636 0.253098
2009-05-27 15:22:03 51°13.663 2°55.96 -999 0.028521 0.165031 0.253098
2009-05-27 15:23:04 51°13.663 2°55.959 -999 0.02883 0.166841 0.253098
2009-05-27 15:24:03 51°13.664 2°55.959 -999 0.028727 0.166235 0.253098
2009-05-27 15:25:03 51°13.664 2°55.959 -999 0.02883 0.166838 0.253098
2009-05-27 15:26:04 51°13.664 2°55.96 -999 0.028624 0.165624 0.253098
2009-05-27 15:27:03 51°13.664 2°55.96 -999 0.028624 0.165624 0.253098
2009-05-27 15:28:04 51°13.664 2°55.959 -999 0.028727 0.166229 0.253098
2009-05-27 15:29:04 51°13.664 2°55.959 -999 0.028624 0.165621 0.253098
2009-05-27 15:30:03 51°13.664 2°55.959 -999 0.028624 0.165618 0.253098
2009-05-27 15:31:04 51°13.663 2°55.959 -999 0.028727 0.166223 0.253098
2009-05-27 15:32:03 51°13.663 2°55.96 -999 0.028727 0.16622 0.253098
2009-05-27 15:33:03 51°13.662 2°55.96 -999 0.028624 0.165609 0.253098
2009-05-27 15:34:04 51°13.661 2°55.96 -999 0.028624 0.165609 0.218274
2009-05-27 15:35:03 51°13.661 2°55.96 -999 0.028521 0.164998 0.253098
2009-05-27 15:36:03 51°13.662 2°55.96 -999 0.028624 0.165603 0.253098
2009-05-27 15:37:04 51°13.662 2°55.961 -999 0.028624 0.165603 0.253098
2009-05-27 15:38:03 51°13.663 2°55.96 -999 0.028727 0.166198 0.253098
2009-05-27 15:39:04 51°13.663 2°55.96 -999 0.02883 0.1668 0.253098
2009-05-27 15:40:04 51°13.664 2°55.959 -999 0.028624 0.16559 0.253098
2009-05-27 15:41:03 51°13.664 2°55.959 -999 0.028624 0.165587 0.218274
2009-05-27 15:42:04 51°13.664 2°55.959 -999 0.028418 0.164378 0.253098
2009-05-27 15:43:03 51°13.665 2°55.96 -999 0.028933 0.167396 0.253098
2009-05-27 15:44:04 51°13.664 2°55.959 -999 0.028624 0.165581 0.253098
2009-05-27 15:45:04 51°13.663 2°55.959 -999 0.028624 0.165569 0.253098
2009-05-27 15:46:03 51°13.663 2°55.959 -999 0.028624 0.165572 0.253098
2009-05-27 15:47:04 51°13.662 2°55.959 -999 0.02883 0.166776 0.253098
2009-05-27 15:48:04 51°13.663 2°55.959 -999 0.028521 0.164958 0.253098
2009-05-27 15:49:03 51°13.663 2°55.959 -999 0.028521 0.164958 0.253098
2009-05-27 15:50:04 51°13.664 2°55.959 -999 0.028521 0.164955 0.253098
2009-05-27 15:51:03 51°13.664 2°55.959 -999 0.028316 0.163737 0.253098
2009-05-27 15:52:03 51°13.662 2°55.959 -999 0.028727 0.166155 0.253098
2009-05-27 15:53:04 51°13.662 2°55.959 -999 0.028521 0.16494 0.253098
2009-05-27 15:54:03 51°13.662 2°55.959 -999 0.028727 0.16614 0.253098
2009-05-27 15:55:04 51°13.662 2°55.959 -999 0.028418 0.164338 0.253098
2009-05-27 15:56:04 51°13.662 2°55.959 -999 0.028521 0.164934 0.253098
2009-05-27 15:57:03 51°13.662 2°55.959 -999 0.028624 0.165532 0.253098
2009-05-27 15:58:04 51°13.662 2°55.959 -999 0.028624 0.165529 0.253098
2009-05-27 15:59:04 51°13.663 2°55.959 -999 0.028521 0.164924 0.253098
2009-05-27 16:00:03 51°13.663 2°55.959 -999 0.028727 0.166128 0.253098
2009-05-27 16:01:04 51°13.663 2°55.959 -999 0.028727 0.166118 0.253098
2009-05-27 16:02:04 51°13.663 2°55.959 -999 0.028727 0.166118 0.253098
2009-05-27 16:03:03 51°13.663 2°55.959 -999 0.028727 0.166112 0.253098
2009-05-27 16:04:04 51°13.662 2°55.959 -999 0.028521 0.164903 0.253098
2009-05-27 16:05:03 51°13.662 2°55.959 -999 0.028521 0.164897 0.253098
2009-05-27 16:06:04 51°13.662 2°55.958 -999 0.02883 0.166708 0.253098
2009-05-27 16:07:04 51°13.663 2°55.959 -999 0.028624 0.165501 0.253098
2009-05-27 16:08:03 51°13.663 2°55.959 -999 0.028521 0.164882 0.253098
2009-05-27 16:09:04 51°13.662 2°55.958 -999 0.028727 0.166091 0.253098
2009-05-27 16:10:04 51°13.663 2°55.96 -999 0.028521 0.164879 0.253098
2009-05-27 16:11:03 51°13.662 2°55.959 -999 0.028521 0.164873 0.253098
2009-05-27 16:12:04 51°13.662 2°55.959 -999 0.028624 0.165474 0.253098
2009-05-27 16:13:04 51°13.662 2°55.959 -999 0.02883 0.16668 0.253098
2009-05-27 16:14:03 51°13.662 2°55.959 -999 0.028727 0.166069 0.253098
2009-05-27 16:15:04 51°13.663 2°55.959 -999 0.028933 0.167272 0.253098
2009-05-27 16:16:03 51°13.664 2°55.959 -999 0.028624 0.165452 0.253098
2009-05-27 16:17:04 51°13.664 2°55.959 -999 0.02883 0.166661 0.253098
2009-05-27 16:18:04 51°13.665 2°55.959 -999 0.028933 0.16726 0.253098
2009-05-27 16:19:04 51°13.665 2°55.958 -999 0.028727 0.166048 0.253098
2009-05-27 16:20:04 51°13.664 2°55.958 -999 0.028521 0.164836 0.253098
2009-05-27 16:21:04 51°13.664 2°55.959 -999 0.028624 0.165434 0.253098
2009-05-27 16:22:04 51°13.664 2°55.959 -999 0.028624 0.165428 0.253098
2009-05-27 16:23:04 51°13.664 2°55.959 -999 0.028727 0.166029 0.253098
2009-05-27 16:24:04 51°13.664 2°55.959 -999 0.028624 0.165422 0.253098
2009-05-27 16:25:04 51°13.664 2°55.959 -999 0.028933 0.167235 0.218274
2009-05-27 16:26:04 51°13.664 2°55.959 -999 0.028727 0.166023 0.218274
2009-05-27 16:27:03 51°13.664 2°55.959 -999 0.028521 0.164808 0.253098
2009-05-27 16:28:04 51°13.664 2°55.959 -999 0.02883 0.166612 0.253098
2009-05-27 16:29:04 51°13.664 2°55.959 -999 0.028727 0.166008 0.253098
2009-05-27 16:30:04 51°13.663 2°55.959 -999 0.028727 0.166005 0.253098
2009-05-27 16:31:04 51°13.663 2°55.959 -999 0.028727 0.165998 0.253098
2009-05-27 16:32:04 51°13.663 2°55.96 -999 0.028727 0.165992 0.253098
2009-05-27 16:33:04 51°13.663 2°55.96 -999 0.028933 0.167198 0.253098
2009-05-27 16:34:04 51°13.663 2°55.96 -999 0.02883 0.166593 0.253098
2009-05-27 16:35:04 51°13.663 2°55.96 -999 0.02883 0.166587 0.253098
2009-05-27 16:36:04 51°13.664 2°55.96 -999 0.028727 0.165974 0.253098
2009-05-27 16:37:04 51°13.664 2°55.96 -999 0.028316 0.163564 0.253098
2009-05-27 16:38:04 51°13.663 2°55.96 -999 0.028624 0.165373 0.253098
2009-05-27 16:39:04 51°13.663 2°55.961 -999 0.028727 0.165971 0.218274
2009-05-27 16:40:04 51°13.663 2°55.961 -999 0.02883 0.166569 0.253098
2009-05-27 16:41:04 51°13.663 2°55.961 -999 0.02883 0.166572 0.253098
2009-05-27 16:42:04 51°13.663 2°55.961 -999 0.028933 0.167161 0.253098
2009-05-27 16:43:04 51°13.663 2°55.961 -999 0.028624 0.165357 0.253098
2009-05-27 16:44:04 51°13.663 2°55.96 -999 0.028521 0.164741 0.253098
2009-05-27 16:45:04 51°13.663 2°55.96 -999 0.028727 0.165949 0.253098
2009-05-27 16:46:04 51°13.662 2°55.96 -999 0.028727 0.165946 0.253098
2009-05-27 16:47:04 51°13.662 2°55.96 -999 0.028727 0.165943 0.253098
2009-05-27 16:48:04 51°13.662 2°55.961 -999 0.028213 0.162922 0.253098
2009-05-27 16:49:04 51°13.662 2°55.961 -999 0.02883 0.166541 0.253098
2009-05-27 16:50:04 51°13.662 2°55.961 -999 0.028727 0.165934 0.253098
2009-05-27 16:51:04 51°13.662 2°55.961 -999 0.028418 0.164126 0.253098
2009-05-27 16:52:04 51°13.663 2°55.961 -999 0.02811 0.162312 0.253098
2009-05-27 16:53:04 51°13.663 2°55.96 -999 0.028316 0.16351 0.218274
2009-05-27 16:54:04 51°13.662 2°55.96 -999 0.028521 0.164717 0.253098
2009-05-27 16:55:04 51°13.662 2°55.96 -999 0.028521 0.164711 0.253098
2009-05-27 16:56:04 51°13.662 2°55.96 -999 0.02883 0.166519 0.253098
2009-05-27 16:57:04 51°13.663 2°55.96 -999 0.028521 0.164708 0.253098
2009-05-27 16:58:04 51°13.663 2°55.96 -999 0.02883 0.16651 0.253098
2009-05-27 16:59:04 51°13.662 2°55.961 -999 0.028418 0.164098 0.218274
2009-05-27 17:00:04 51°13.663 2°55.961 -999 0.028316 0.163489 0.253098
2009-05-27 17:01:04 51°13.663 2°55.96 -999 0.028316 0.163483 0.253098
2009-05-27 17:02:03 51°13.664 2°55.96 -999 0.028624 0.165293 0.253098
2009-05-27 17:03:04 51°13.663 2°55.959 -999 0.028521 0.16469 0.253098
2009-05-27 17:04:04 51°13.663 2°55.959 -999 0.028624 0.165293 0.253098
2009-05-27 17:05:03 51°13.663 2°55.959 -999 0.028521 0.164681 0.218274
2009-05-27 17:06:04 51°13.663 2°55.958 -999 0.028316 0.163465 0.253098
2009-05-27 17:07:04 51°13.664 2°55.958 -999 0.028213 0.162871 0.253098
2009-05-27 17:08:04 51°13.664 2°55.959 -999 0.028316 0.163468 0.253098
2009-05-27 17:09:04 51°13.664 2°55.959 -999 0.028418 0.164068 0.253098
2009-05-27 17:10:04 51°13.663 2°55.959 -999 0.028418 0.164071 0.253098
2009-05-27 17:11:04 51°13.662 2°55.959 -999 0.028316 0.163465 0.253098